Other Surface Observations
Issued by NWS Great Falls, MT

Home | Current Version | Previous Version | Text Only | Print | Product List | Glossary On
Versions: 1 2 3 4 5 6 7 8 9 10 11 12 13 14 15 16 17 18 19 20 21 22 23 24 25 26 27 28 29 30 31 32 33 34 35 36 37 38 39 40 41 42 43 44 45 46 47 48 49 50
319
SXUS55 KTFX 210308
OSOTFX

AREA AWOS OBSERVATIONS
NATIONAL WEATHER SERVICE GREAT FALLS MT
0907 PM MDT Thu Jul 20 2017

METAR K6S8 210255Z AUTO 21010KT 40SM 27/09 A2985 RMK A01 T02660088
METAR K7S1 210255Z AUTO 36011KT 25SM 29/03 A2995 RMK A01 T02880027
METAR K97M 210255Z AUTO 15003KT 40SM 27/08 A2985 RMK A01 T02660083
METAR K9S2 210255Z AUTO 10009KT 25SM 23/09 A2984 RMK A01 T02330094
METAR K9S5 210255Z AUTO 34004KT 15SM 28/04 A2992 RMK A01 T02830038
METAR KRPX 210255Z AUTO 23003KT 40SM 29/07 A2975 RMK A01 T02940066
METAR KRPX 210155Z AUTO 18015KT 40SM 32/07 A2975 RMK A01 T03220066
METAR KS34 210255Z AUTO 25007KT 40SM 25/04 A2999 RMK A01 T02500044
METAR KS34 210155Z AUTO 26008KT 40SM 27/06 A2998 RMK A01 T02660055
METAR KTHM 210155Z AUTO 22013KT 40SM 26/03 A3002 RMK A01 T02610033



USA.gov is the U.S. government's official web portal to all federal, state and local government web resources and services.